sensor_id;sensor_type;location;lat;lon;timestamp;pressure;altitude;pressure_sealevel;temperature;humidity
61682;BME280;47577;43.610;25.010;2022-11-20T00:01:40;99881.19;;;11.53;86.70
61682;BME280;47577;43.610;25.010;2022-11-20T00:04:06;99878.53;;;11.53;86.44
61682;BME280;47577;43.610;25.010;2022-11-20T00:06:32;99872.91;;;11.41;86.89
61682;BME280;47577;43.610;25.010;2022-11-20T00:08:59;99879.47;;;11.52;87.04
61682;BME280;47577;43.610;25.010;2022-11-20T00:11:26;99860.47;;;11.41;87.44
61682;BME280;47577;43.610;25.010;2022-11-20T00:13:54;99862.53;;;11.34;88.11
61682;BME280;47577;43.610;25.010;2022-11-20T00:16:22;99842.31;;;11.30;87.66
61682;BME280;47577;43.610;25.010;2022-11-20T00:18:48;99843.13;;;11.32;87.88
61682;BME280;47577;43.610;25.010;2022-11-20T00:23:44;99851.06;;;11.13;89.43
61682;BME280;47577;43.610;25.010;2022-11-20T00:26:12;99849.25;;;11.14;89.38
61682;BME280;47577;43.610;25.010;2022-11-20T00:28:38;99848.28;;;11.16;89.44
61682;BME280;47577;43.610;25.010;2022-11-20T00:31:08;99851.50;;;11.23;89.20
61682;BME280;47577;43.610;25.010;2022-11-20T00:33:34;99849.50;;;11.28;89.10
61682;BME280;47577;43.610;25.010;2022-11-20T00:36:08;99851.88;;;11.34;88.71
61682;BME280;47577;43.610;25.010;2022-11-20T00:38:34;99842.84;;;11.39;88.20
61682;BME280;47577;43.610;25.010;2022-11-20T00:41:03;99842.75;;;11.40;88.13
61682;BME280;47577;43.610;25.010;2022-11-20T00:43:29;99837.53;;;11.39;88.22
61682;BME280;47577;43.610;25.010;2022-11-20T00:46:03;99841.63;;;11.46;88.06
61682;BME280;47577;43.610;25.010;2022-11-20T00:48:29;99842.13;;;11.54;87.61
61682;BME280;47577;43.610;25.010;2022-11-20T00:50:56;99819.22;;;11.50;87.80
61682;BME280;47577;43.610;25.010;2022-11-20T00:53:22;99829.59;;;11.56;87.58
61682;BME280;47577;43.610;25.010;2022-11-20T00:55:58;99837.56;;;11.56;87.45
61682;BME280;47577;43.610;25.010;2022-11-20T00:58:25;99837.56;;;11.56;87.78
61682;BME280;47577;43.610;25.010;2022-11-20T01:00:53;99840.03;;;11.61;87.30
61682;BME280;47577;43.610;25.010;2022-11-20T01:03:24;99838.22;;;11.61;86.79
61682;BME280;47577;43.610;25.010;2022-11-20T01:05:50;99839.81;;;11.65;86.49
61682;BME280;47577;43.610;25.010;2022-11-20T01:08:15;99828.09;;;11.69;87.17
61682;BME280;47577;43.610;25.010;2022-11-20T01:10:41;99841.63;;;11.65;86.87
61682;BME280;47577;43.610;25.010;2022-11-20T01:13:07;99837.94;;;11.67;86.94
61682;BME280;47577;43.610;25.010;2022-11-20T01:15:51;99842.19;;;11.71;86.67
61682;BME280;47577;43.610;25.010;2022-11-20T01:18:16;99836.72;;;11.75;87.27
61682;BME280;47577;43.610;25.010;2022-11-20T01:20:42;99824.25;;;11.75;85.90
61682;BME280;47577;43.610;25.010;2022-11-20T01:23:07;99831.91;;;11.83;86.27
61682;BME280;47577;43.610;25.010;2022-11-20T01:25:34;99825.59;;;11.84;86.66
61682;BME280;47577;43.610;25.010;2022-11-20T01:28:00;99829.16;;;11.84;86.67
61682;BME280;47577;43.610;25.010;2022-11-20T01:30:25;99827.34;;;11.85;86.63
61682;BME280;47577;43.610;25.010;2022-11-20T01:32:51;99836.81;;;11.92;86.54
61682;BME280;47577;43.610;25.010;2022-11-20T01:35:16;99838.59;;;11.92;86.58
61682;BME280;47577;43.610;25.010;2022-11-20T01:37:42;99832.28;;;11.94;85.88
61682;BME280;47577;43.610;25.010;2022-11-20T01:40:08;99812.84;;;11.92;85.66
61682;BME280;47577;43.610;25.010;2022-11-20T01:42:34;99805.63;;;11.94;85.65
61682;BME280;47577;43.610;25.010;2022-11-20T01:45:56;99814.19;;;12.01;85.15
61682;BME280;47577;43.610;25.010;2022-11-20T01:48:26;99798.13;;;12.02;85.48
61682;BME280;47577;43.610;25.010;2022-11-20T01:50:57;99794.81;;;11.97;85.26
61682;BME280;47577;43.610;25.010;2022-11-20T01:53:29;99781.50;;;11.97;85.23
61682;BME280;47577;43.610;25.010;2022-11-20T01:56:00;99765.59;;;11.96;84.99
61682;BME280;47577;43.610;25.010;2022-11-20T01:58:33;99757.88;;;11.89;85.54
61682;BME280;47577;43.610;25.010;2022-11-20T02:01:00;99776.53;;;11.89;85.90
61682;BME280;47577;43.610;25.010;2022-11-20T02:03:27;99749.41;;;11.81;86.30
61682;BME280;47577;43.610;25.010;2022-11-20T02:06:12;99774.78;;;11.88;86.50
61682;BME280;47577;43.610;25.010;2022-11-20T02:08:40;99756.09;;;11.71;86.55
61682;BME280;47577;43.610;25.010;2022-11-20T02:11:06;99758.09;;;11.85;86.86
61682;BME280;47577;43.610;25.010;2022-11-20T02:13:33;99746.81;;;11.80;87.42
61682;BME280;47577;43.610;25.010;2022-11-20T02:16:27;99749.19;;;11.86;86.71
61682;BME280;47577;43.610;25.010;2022-11-20T02:18:55;99732.56;;;11.81;87.46
61682;BME280;47577;43.610;25.010;2022-11-20T02:24:07;99735.66;;;11.71;87.71
61682;BME280;47577;43.610;25.010;2022-11-20T02:27:04;99735.13;;;11.65;89.22
61682;BME280;47577;43.610;25.010;2022-11-20T02:29:53;99750.94;;;11.68;89.27
61682;BME280;47577;43.610;25.010;2022-11-20T02:34:52;99735.75;;;11.70;89.65
61682;BME280;47577;43.610;25.010;2022-11-20T02:37:18;99721.66;;;11.68;89.43
61682;BME280;47577;43.610;25.010;2022-11-20T02:39:45;99722.59;;;11.48;90.55
61682;BME280;47577;43.610;25.010;2022-11-20T02:42:13;99731.28;;;11.51;91.12
61682;BME280;47577;43.610;25.010;2022-11-20T02:44:38;99733.75;;;11.56;91.15
61682;BME280;47577;43.610;25.010;2022-11-20T02:47:04;99720.50;;;11.55;91.22
61682;BME280;47577;43.610;25.010;2022-11-20T02:49:30;99716.91;;;11.56;91.04
61682;BME280;47577;43.610;25.010;2022-11-20T02:51:55;99729.56;;;11.69;90.91
61682;BME280;47577;43.610;25.010;2022-11-20T02:54:21;99723.72;;;11.61;90.85
61682;BME280;47577;43.610;25.010;2022-11-20T02:56:47;99734.50;;;11.77;90.92
61682;BME280;47577;43.610;25.010;2022-11-20T02:59:12;99743.91;;;11.84;90.40
61682;BME280;47577;43.610;25.010;2022-11-20T03:01:38;99734.03;;;11.86;90.13
61682;BME280;47577;43.610;25.010;2022-11-20T03:04:04;99745.13;;;11.96;89.74
61682;BME280;47577;43.610;25.010;2022-11-20T03:06:29;99747.09;;;11.93;89.38
61682;BME280;47577;43.610;25.010;2022-11-20T03:08:55;99744.28;;;11.96;90.07
61682;BME280;47577;43.610;25.010;2022-11-20T03:11:21;99753.13;;;11.96;89.21
61682;BME280;47577;43.610;25.010;2022-11-20T03:13:47;99752.81;;;12.02;89.96
61682;BME280;47577;43.610;25.010;2022-11-20T03:16:15;99754.38;;;12.06;90.20
61682;BME280;47577;43.610;25.010;2022-11-20T03:18:42;99755.41;;;12.04;89.02
61682;BME280;47577;43.610;25.010;2022-11-20T03:21:09;99747.34;;;12.05;89.51
61682;BME280;47577;43.610;25.010;2022-11-20T03:23:37;99745.91;;;11.98;90.88
61682;BME280;47577;43.610;25.010;2022-11-20T03:26:16;99753.75;;;12.01;90.48
61682;BME280;47577;43.610;25.010;2022-11-20T03:28:47;99749.47;;;11.99;91.13
61682;BME280;47577;43.610;25.010;2022-11-20T03:31:14;99754.72;;;12.00;91.47
61682;BME280;47577;43.610;25.010;2022-11-20T03:33:40;99770.63;;;12.02;91.79
61682;BME280;47577;43.610;25.010;2022-11-20T03:36:09;99772.09;;;12.07;90.71
61682;BME280;47577;43.610;25.010;2022-11-20T03:38:36;99773.13;;;12.05;90.69
61682;BME280;47577;43.610;25.010;2022-11-20T03:41:07;99786.94;;;12.13;90.92
61682;BME280;47577;43.610;25.010;2022-11-20T03:43:34;99792.16;;;12.15;92.06
61682;BME280;47577;43.610;25.010;2022-11-20T03:46:00;99801.78;;;12.00;90.18
61682;BME280;47577;43.610;25.010;2022-11-20T03:48:26;99802.69;;;11.62;90.20
61682;BME280;47577;43.610;25.010;2022-11-20T03:51:09;99814.25;;;11.61;90.47
61682;BME280;47577;43.610;25.010;2022-11-20T03:53:35;99819.31;;;11.29;89.73
61682;BME280;47577;43.610;25.010;2022-11-20T03:56:00;99835.78;;;11.38;89.37
61682;BME280;47577;43.610;25.010;2022-11-20T03:58:26;99830.53;;;11.36;88.38
61682;BME280;47577;43.610;25.010;2022-11-20T04:00:52;99833.88;;;11.02;89.21
61682;BME280;47577;43.610;25.010;2022-11-20T04:03:17;99843.16;;;10.91;89.49
61682;BME280;47577;43.610;25.010;2022-11-20T04:05:43;99865.00;;;10.79;90.28
61682;BME280;47577;43.610;25.010;2022-11-20T04:08:09;99851.00;;;10.94;90.26
61682;BME280;47577;43.610;25.010;2022-11-20T04:10:34;99837.31;;;11.04;89.68
61682;BME280;47577;43.610;25.010;2022-11-20T04:13:00;99847.50;;;10.94;89.37
61682;BME280;47577;43.610;25.010;2022-11-20T04:15:25;99854.41;;;10.77;89.74
61682;BME280;47577;43.610;25.010;2022-11-20T04:17:51;99844.25;;;10.87;89.52
61682;BME280;47577;43.610;25.010;2022-11-20T04:20:16;99837.84;;;10.91;88.77
61682;BME280;47577;43.610;25.010;2022-11-20T04:22:42;99848.53;;;10.90;88.77
61682;BME280;47577;43.610;25.010;2022-11-20T04:25:08;99880.06;;;10.99;87.14
61682;BME280;47577;43.610;25.010;2022-11-20T04:27:34;99877.34;;;10.80;88.27
61682;BME280;47577;43.610;25.010;2022-11-20T04:30:03;99900.91;;;10.47;89.86
61682;BME280;47577;43.610;25.010;2022-11-20T04:32:28;99904.06;;;10.56;89.16
61682;BME280;47577;43.610;25.010;2022-11-20T04:34:54;99888.31;;;10.28;90.65
61682;BME280;47577;43.610;25.010;2022-11-20T04:37:20;99895.00;;;10.40;89.92
61682;BME280;47577;43.610;25.010;2022-11-20T04:39:45;99915.91;;;10.48;88.92
61682;BME280;47577;43.610;25.010;2022-11-20T04:42:11;99928.38;;;10.23;87.06
61682;BME280;47577;43.610;25.010;2022-11-20T04:44:55;99937.75;;;9.88;89.14
61682;BME280;47577;43.610;25.010;2022-11-20T04:47:21;99938.28;;;9.49;90.85
61682;BME280;47577;43.610;25.010;2022-11-20T04:49:46;99966.66;;;9.47;91.43
61682;BME280;47577;43.610;25.010;2022-11-20T04:52:12;99949.63;;;9.29;92.65
61682;BME280;47577;43.610;25.010;2022-11-20T04:54:38;99912.53;;;9.52;92.48
61682;BME280;47577;43.610;25.010;2022-11-20T04:57:03;99925.59;;;9.57;91.21
61682;BME280;47577;43.610;25.010;2022-11-20T04:59:29;99957.34;;;9.60;89.43
61682;BME280;47577;43.610;25.010;2022-11-20T05:01:54;99938.59;;;9.65;90.78
61682;BME280;47577;43.610;25.010;2022-11-20T05:04:20;99941.81;;;9.73;89.82
61682;BME280;47577;43.610;25.010;2022-11-20T05:06:46;99962.88;;;9.78;90.34
61682;BME280;47577;43.610;25.010;2022-11-20T05:09:12;99955.97;;;9.74;89.23
61682;BME280;47577;43.610;25.010;2022-11-20T05:11:38;99939.63;;;9.84;88.34
61682;BME280;47577;43.610;25.010;2022-11-20T05:14:04;99938.19;;;9.76;88.05
61682;BME280;47577;43.610;25.010;2022-11-20T05:16:29;99941.59;;;9.79;87.15
61682;BME280;47577;43.610;25.010;2022-11-20T05:18:55;99932.88;;;9.76;88.03
61682;BME280;47577;43.610;25.010;2022-11-20T05:21:21;99958.75;;;9.70;88.27
61682;BME280;47577;43.610;25.010;2022-11-20T05:23:47;99955.03;;;9.51;87.27
61682;BME280;47577;43.610;25.010;2022-11-20T05:26:16;99958.59;;;9.50;87.67
61682;BME280;47577;43.610;25.010;2022-11-20T05:28:42;99955.03;;;9.51;87.36
61682;BME280;47577;43.610;25.010;2022-11-20T05:31:11;99958.06;;;9.65;86.67
61682;BME280;47577;43.610;25.010;2022-11-20T05:33:39;99974.47;;;9.51;86.44
61682;BME280;47577;43.610;25.010;2022-11-20T05:36:05;99960.88;;;9.36;86.39
61682;BME280;47577;43.610;25.010;2022-11-20T05:38:31;99957.53;;;9.30;87.34
61682;BME280;47577;43.610;25.010;2022-11-20T05:41:12;99979.63;;;9.31;87.37
61682;BME280;47577;43.610;25.010;2022-11-20T05:43:39;99992.28;;;9.23;86.98
61682;BME280;47577;43.610;25.010;2022-11-20T05:46:07;99982.16;;;9.34;87.47
61682;BME280;47577;43.610;25.010;2022-11-20T05:48:34;99975.72;;;9.16;87.53
61682;BME280;47577;43.610;25.010;2022-11-20T05:51:01;99975.31;;;9.28;87.33
61682;BME280;47577;43.610;25.010;2022-11-20T05:53:28;99980.66;;;9.27;87.29
61682;BME280;47577;43.610;25.010;2022-11-20T05:56:01;100006.19;;;9.29;87.51
61682;BME280;47577;43.610;25.010;2022-11-20T05:58:28;100017.84;;;9.25;86.77
61682;BME280;47577;43.610;25.010;2022-11-20T06:00:53;100042.59;;;9.26;87.28
61682;BME280;47577;43.610;25.010;2022-11-20T06:03:19;100038.38;;;9.20;86.95
61682;BME280;47577;43.610;25.010;2022-11-20T06:05:45;100041.13;;;9.17;87.18
61682;BME280;47577;43.610;25.010;2022-11-20T06:08:11;100046.38;;;9.19;87.58
61682;BME280;47577;43.610;25.010;2022-11-20T06:10:37;100039.38;;;9.16;86.99
61682;BME280;47577;43.610;25.010;2022-11-20T06:13:02;100050.03;;;9.14;87.60
61682;BME280;47577;43.610;25.010;2022-11-20T06:15:28;100048.09;;;8.93;88.02
61682;BME280;47577;43.610;25.010;2022-11-20T06:17:54;100046.91;;;9.02;88.00
61682;BME280;47577;43.610;25.010;2022-11-20T06:20:20;100050.34;;;9.05;87.88
61682;BME280;47577;43.610;25.010;2022-11-20T06:22:46;100057.94;;;9.16;89.20
61682;BME280;47577;43.610;25.010;2022-11-20T06:25:12;100065.53;;;9.00;87.92
61682;BME280;47577;43.610;25.010;2022-11-20T06:27:38;100082.00;;;9.10;89.12
61682;BME280;47577;43.610;25.010;2022-11-20T06:30:04;100063.78;;;9.01;88.03
61682;BME280;47577;43.610;25.010;2022-11-20T06:32:29;100071.78;;;8.99;89.31
61682;BME280;47577;43.610;25.010;2022-11-20T06:34:55;100079.81;;;8.96;88.89
61682;BME280;47577;43.610;25.010;2022-11-20T06:37:21;100071.44;;;9.08;89.92
61682;BME280;47577;43.610;25.010;2022-11-20T06:39:46;100076.50;;;9.16;88.87
61682;BME280;47577;43.610;25.010;2022-11-20T06:42:12;100061.41;;;9.18;89.23
61682;BME280;47577;43.610;25.010;2022-11-20T06:44:37;100038.06;;;9.03;88.46
61682;BME280;47577;43.610;25.010;2022-11-20T06:47:03;100049.22;;;9.12;87.94
61682;BME280;47577;43.610;25.010;2022-11-20T06:49:29;100041.47;;;9.06;89.65
61682;BME280;47577;43.610;25.010;2022-11-20T06:51:54;100053.97;;;9.03;88.12
61682;BME280;47577;43.610;25.010;2022-11-20T06:54:20;100054.06;;;9.00;88.98
61682;BME280;47577;43.610;25.010;2022-11-20T06:56:48;100066.16;;;9.08;89.07
61682;BME280;47577;43.610;25.010;2022-11-20T06:59:14;100071.41;;;9.10;89.65
61682;BME280;47577;43.610;25.010;2022-11-20T07:01:40;100049.19;;;9.14;87.60
61682;BME280;47577;43.610;25.010;2022-11-20T07:04:06;100057.44;;;9.31;87.33
61682;BME280;47577;43.610;25.010;2022-11-20T07:06:31;100068.25;;;9.25;87.10
61682;BME280;47577;43.610;25.010;2022-11-20T07:08:57;100074.41;;;9.26;86.44
61682;BME280;47577;43.610;25.010;2022-11-20T07:11:23;100075.03;;;9.34;87.60
61682;BME280;47577;43.610;25.010;2022-11-20T07:13:49;100085.63;;;9.34;87.87
61682;BME280;47577;43.610;25.010;2022-11-20T07:16:15;100098.00;;;9.35;87.65
61682;BME280;47577;43.610;25.010;2022-11-20T07:18:41;100097.19;;;9.33;87.02
61682;BME280;47577;43.610;25.010;2022-11-20T07:21:08;100085.03;;;9.26;86.07
61682;BME280;47577;43.610;25.010;2022-11-20T07:23:34;100090.00;;;9.37;86.52
61682;BME280;47577;43.610;25.010;2022-11-20T07:26:05;100075.22;;;9.28;87.72
61682;BME280;47577;43.610;25.010;2022-11-20T07:28:31;100098.91;;;9.34;87.61
61682;BME280;47577;43.610;25.010;2022-11-20T07:30:57;100099.06;;;9.29;87.50
61682;BME280;47577;43.610;25.010;2022-11-20T07:33:23;100122.69;;;9.37;88.51
61682;BME280;47577;43.610;25.010;2022-11-20T07:35:48;100117.47;;;9.07;87.48
61682;BME280;47577;43.610;25.010;2022-11-20T07:38:14;100110.81;;;9.22;88.56
61682;BME280;47577;43.610;25.010;2022-11-20T07:40:40;100116.00;;;9.25;88.90
61682;BME280;47577;43.610;25.010;2022-11-20T07:43:05;100102.69;;;9.27;87.66
61682;BME280;47577;43.610;25.010;2022-11-20T07:45:31;100106.63;;;9.42;88.73
61682;BME280;47577;43.610;25.010;2022-11-20T07:47:57;100099.97;;;9.55;86.64
61682;BME280;47577;43.610;25.010;2022-11-20T07:50:22;100096.34;;;9.58;87.33
61682;BME280;47577;43.610;25.010;2022-11-20T07:52:48;100101.81;;;9.53;87.23
61682;BME280;47577;43.610;25.010;2022-11-20T07:55:14;100115.09;;;9.53;87.60
61682;BME280;47577;43.610;25.010;2022-11-20T07:57:40;100124.56;;;9.60;86.34
61682;BME280;47577;43.610;25.010;2022-11-20T08:00:08;100120.28;;;9.56;87.78
61682;BME280;47577;43.610;25.010;2022-11-20T08:02:41;100114.22;;;9.52;88.65
61682;BME280;47577;43.610;25.010;2022-11-20T08:05:08;100105.13;;;9.60;88.74
61682;BME280;47577;43.610;25.010;2022-11-20T08:07:42;100098.47;;;9.73;87.76
61682;BME280;47577;43.610;25.010;2022-11-20T08:10:10;100094.56;;;9.83;87.44
61682;BME280;47577;43.610;25.010;2022-11-20T08:12:44;100083.13;;;9.81;87.43
61682;BME280;47577;43.610;25.010;2022-11-20T08:15:28;100065.75;;;9.73;86.89
61682;BME280;47577;43.610;25.010;2022-11-20T08:18:00;100082.31;;;9.79;88.51
61682;BME280;47577;43.610;25.010;2022-11-20T08:20:25;100083.59;;;9.93;86.56
61682;BME280;47577;43.610;25.010;2022-11-20T08:22:51;100080.09;;;9.67;88.03
61682;BME280;47577;43.610;25.010;2022-11-20T08:25:17;100079.66;;;9.79;88.09
61682;BME280;47577;43.610;25.010;2022-11-20T08:27:42;100080.63;;;10.02;87.85
61682;BME280;47577;43.610;25.010;2022-11-20T08:30:08;100073.91;;;10.15;86.48
61682;BME280;47577;43.610;25.010;2022-11-20T08:32:34;100092.13;;;10.26;84.78
61682;BME280;47577;43.610;25.010;2022-11-20T08:35:02;100107.72;;;10.37;85.32
61682;BME280;47577;43.610;25.010;2022-11-20T08:37:28;100104.00;;;10.41;84.72
61682;BME280;47577;43.610;25.010;2022-11-20T08:39:53;100113.84;;;10.39;85.77
61682;BME280;47577;43.610;25.010;2022-11-20T08:42:22;100123.25;;;10.48;84.59
61682;BME280;47577;43.610;25.010;2022-11-20T08:44:47;100108.50;;;10.39;84.79
61682;BME280;47577;43.610;25.010;2022-11-20T08:47:13;100107.91;;;10.54;83.95
61682;BME280;47577;43.610;25.010;2022-11-20T08:49:39;100100.09;;;10.51;83.73
61682;BME280;47577;43.610;25.010;2022-11-20T08:52:04;100096.66;;;10.48;85.27
61682;BME280;47577;43.610;25.010;2022-11-20T08:54:30;100100.84;;;10.55;85.13
61682;BME280;47577;43.610;25.010;2022-11-20T08:56:56;100097.78;;;10.64;84.61
61682;BME280;47577;43.610;25.010;2022-11-20T08:59:22;100100.66;;;10.59;84.50
61682;BME280;47577;43.610;25.010;2022-11-20T09:01:48;100098.00;;;10.59;85.08
61682;BME280;47577;43.610;25.010;2022-11-20T09:04:13;100074.75;;;10.65;83.72
61682;BME280;47577;43.610;25.010;2022-11-20T09:06:39;100066.59;;;10.69;84.28
61682;BME280;47577;43.610;25.010;2022-11-20T09:09:05;100084.81;;;10.78;83.85
61682;BME280;47577;43.610;25.010;2022-11-20T09:11:31;100078.28;;;10.87;82.96
61682;BME280;47577;43.610;25.010;2022-11-20T09:13:57;100063.66;;;10.75;83.05
61682;BME280;47577;43.610;25.010;2022-11-20T09:16:22;100064.56;;;10.76;82.81
61682;BME280;47577;43.610;25.010;2022-11-20T09:18:49;100071.75;;;10.74;82.94
61682;BME280;47577;43.610;25.010;2022-11-20T09:21:15;100059.72;;;10.64;83.11
61682;BME280;47577;43.610;25.010;2022-11-20T09:23:41;100042.59;;;10.49;83.58
61682;BME280;47577;43.610;25.010;2022-11-20T09:26:14;100040.97;;;10.45;84.65
61682;BME280;47577;43.610;25.010;2022-11-20T09:28:40;100029.03;;;10.33;84.55
61682;BME280;47577;43.610;25.010;2022-11-20T09:31:17;100041.34;;;10.10;86.41
61682;BME280;47577;43.610;25.010;2022-11-20T09:33:45;100041.81;;;10.21;85.76
61682;BME280;47577;43.610;25.010;2022-11-20T09:36:10;100032.88;;;10.24;86.29
61682;BME280;47577;43.610;25.010;2022-11-20T09:38:36;100032.41;;;10.36;84.95
61682;BME280;47577;43.610;25.010;2022-11-20T09:41:04;100035.41;;;10.51;85.74
61682;BME280;47577;43.610;25.010;2022-11-20T09:46:47;100023.78;;;10.75;83.98
61682;BME280;47577;43.610;25.010;2022-11-20T09:49:38;100014.28;;;10.92;83.64
61682;BME280;47577;43.610;25.010;2022-11-20T09:55:14;100011.81;;;11.08;83.15
61682;BME280;47577;43.610;25.010;2022-11-20T09:57:46;100010.78;;;11.12;83.38
61682;BME280;47577;43.610;25.010;2022-11-20T10:00:14;100002.00;;;11.10;81.69
61682;BME280;47577;43.610;25.010;2022-11-20T10:02:58;100015.06;;;11.16;82.02
61682;BME280;47577;43.610;25.010;2022-11-20T10:05:35;100001.28;;;11.06;81.45
61682;BME280;47577;43.610;25.010;2022-11-20T10:11:06;100010.72;;;11.13;82.16
61682;BME280;47577;43.610;25.010;2022-11-20T10:22:46;100020.28;;;11.18;82.04
61682;BME280;47577;43.610;25.010;2022-11-20T10:25:37;100014.75;;;11.22;81.79
61682;BME280;47577;43.610;25.010;2022-11-20T10:31:31;100022.38;;;11.31;82.23
61682;BME280;47577;43.610;25.010;2022-11-20T10:34:02;100034.41;;;11.20;82.07
61682;BME280;47577;43.610;25.010;2022-11-20T10:36:34;100028.72;;;11.07;83.76
61682;BME280;47577;43.610;25.010;2022-11-20T10:39:33;100045.38;;;11.12;83.61
61682;BME280;47577;43.610;25.010;2022-11-20T10:42:00;100042.28;;;11.01;83.99
61682;BME280;47577;43.610;25.010;2022-11-20T10:44:28;100060.22;;;10.73;86.62
61682;BME280;47577;43.610;25.010;2022-11-20T10:47:17;100067.97;;;10.79;86.24
61682;BME280;47577;43.610;25.010;2022-11-20T10:49:46;100053.97;;;10.74;87.09
61682;BME280;47577;43.610;25.010;2022-11-20T11:00:10;100032.41;;;11.25;85.59
61682;BME280;47577;43.610;25.010;2022-11-20T11:02:51;100021.16;;;11.18;84.80
61682;BME280;47577;43.610;25.010;2022-11-20T11:07:46;100055.16;;;11.32;85.84
61682;BME280;47577;43.610;25.010;2022-11-20T11:10:31;100061.00;;;11.40;85.27
61682;BME280;47577;43.610;25.010;2022-11-20T11:12:58;100079.03;;;11.33;86.61
61682;BME280;47577;43.610;25.010;2022-11-20T11:15:36;100096.22;;;11.26;85.76
61682;BME280;47577;43.610;25.010;2022-11-20T11:18:03;100100.19;;;11.16;86.71
61682;BME280;47577;43.610;25.010;2022-11-20T11:20:29;100101.13;;;11.15;87.15
61682;BME280;47577;43.610;25.010;2022-11-20T11:22:57;100098.41;;;11.16;86.52
61682;BME280;47577;43.610;25.010;2022-11-20T11:25:34;100088.91;;;11.09;86.66
61682;BME280;47577;43.610;25.010;2022-11-20T11:28:19;100084.28;;;11.14;85.57
61682;BME280;47577;43.610;25.010;2022-11-20T11:30:45;100064.97;;;11.09;85.33
61682;BME280;47577;43.610;25.010;2022-11-20T11:33:31;100054.63;;;11.24;85.71
61682;BME280;47577;43.610;25.010;2022-11-20T11:36:03;100062.09;;;11.36;85.70
61682;BME280;47577;43.610;25.010;2022-11-20T11:38:42;100041.72;;;11.35;85.61
61682;BME280;47577;43.610;25.010;2022-11-20T11:41:23;100017.97;;;11.30;85.35
61682;BME280;47577;43.610;25.010;2022-11-20T11:44:00;100039.53;;;11.45;85.45
61682;BME280;47577;43.610;25.010;2022-11-20T11:46:53;100023.22;;;11.52;87.06
61682;BME280;47577;43.610;25.010;2022-11-20T11:49:20;100014.25;;;11.55;87.32
61682;BME280;47577;43.610;25.010;2022-11-20T11:54:54;100018.63;;;11.56;87.02
61682;BME280;47577;43.610;25.010;2022-11-20T11:57:57;100013.31;;;11.56;87.80
61682;BME280;47577;43.610;25.010;2022-11-20T12:00:18;100013.56;;;11.50;87.17
61682;BME280;47577;43.610;25.010;2022-11-20T12:02:49;100007.66;;;11.43;87.44
61682;BME280;47577;43.610;25.010;2022-11-20T12:05:24;99995.03;;;11.28;87.57
61682;BME280;47577;43.610;25.010;2022-11-20T12:16:02;99981.16;;;10.99;88.05
61682;BME280;47577;43.610;25.010;2022-11-20T12:18:28;99984.91;;;10.95;88.34
61682;BME280;47577;43.610;25.010;2022-11-20T12:30:15;99935.72;;;10.17;93.86
61682;BME280;47577;43.610;25.010;2022-11-20T12:32:48;99940.84;;;10.21;94.12
61682;BME280;47577;43.610;25.010;2022-11-20T12:44:02;99945.13;;;10.25;94.54
61682;BME280;47577;43.610;25.010;2022-11-20T12:50:06;99953.56;;;10.37;92.81
61682;BME280;47577;43.610;25.010;2022-11-20T12:52:56;99972.75;;;10.45;93.11
61682;BME280;47577;43.610;25.010;2022-11-20T12:58:12;99964.59;;;10.50;92.26
61682;BME280;47577;43.610;25.010;2022-11-20T13:00:51;99991.44;;;10.64;91.33
61682;BME280;47577;43.610;25.010;2022-11-20T13:03:34;99965.25;;;10.55;91.41
61682;BME280;47577;43.610;25.010;2022-11-20T13:06:12;99936.19;;;10.50;92.32
61682;BME280;47577;43.610;25.010;2022-11-20T13:08:41;99934.28;;;10.54;92.01
61682;BME280;47577;43.610;25.010;2022-11-20T13:11:23;99971.13;;;10.63;91.34
61682;BME280;47577;43.610;25.010;2022-11-20T13:14:00;99978.97;;;10.66;90.44
61682;BME280;47577;43.610;25.010;2022-11-20T13:19:24;99980.81;;;10.64;90.00
61682;BME280;47577;43.610;25.010;2022-11-20T13:21:50;100009.38;;;10.59;90.07
61682;BME280;47577;43.610;25.010;2022-11-20T13:26:44;100095.03;;;10.67;89.45
61682;BME280;47577;43.610;25.010;2022-11-20T13:29:19;100141.97;;;10.45;90.15
61682;BME280;47577;43.610;25.010;2022-11-20T13:31:47;100129.38;;;10.24;91.09
61682;BME280;47577;43.610;25.010;2022-11-20T13:34:34;100102.13;;;10.19;92.27
61682;BME280;47577;43.610;25.010;2022-11-20T13:36:59;100055.16;;;10.20;92.77
61682;BME280;47577;43.610;25.010;2022-11-20T13:39:34;100024.56;;;10.33;92.97
61682;BME280;47577;43.610;25.010;2022-11-20T13:42:21;100004.41;;;10.51;92.58
61682;BME280;47577;43.610;25.010;2022-11-20T13:45:08;100024.28;;;10.63;91.28
61682;BME280;47577;43.610;25.010;2022-11-20T13:47:35;100043.94;;;10.59;90.85
61682;BME280;47577;43.610;25.010;2022-11-20T13:50:04;100052.66;;;10.40;91.42
61682;BME280;47577;43.610;25.010;2022-11-20T13:55:54;100043.22;;;10.77;90.80
61682;BME280;47577;43.610;25.010;2022-11-20T14:01:28;100041.06;;;10.87;90.07
61682;BME280;47577;43.610;25.010;2022-11-20T14:03:56;100042.47;;;10.96;89.62
61682;BME280;47577;43.610;25.010;2022-11-20T14:06:28;100058.97;;;11.04;88.93
61682;BME280;47577;43.610;25.010;2022-11-20T14:08:55;100070.44;;;11.06;88.36
61682;BME280;47577;43.610;25.010;2022-11-20T14:11:29;100085.69;;;11.01;89.48
61682;BME280;47577;43.610;25.010;2022-11-20T14:14:13;100096.28;;;11.03;88.48
61682;BME280;47577;43.610;25.010;2022-11-20T14:16:38;100086.41;;;11.06;89.04
61682;BME280;47577;43.610;25.010;2022-11-20T14:19:25;100112.13;;;11.06;88.27
61682;BME280;47577;43.610;25.010;2022-11-20T14:22:37;100117.25;;;10.88;88.22
61682;BME280;47577;43.610;25.010;2022-11-20T14:24:38;100093.38;;;10.87;88.86
61682;BME280;47577;43.610;25.010;2022-11-20T14:27:04;100101.16;;;10.91;90.19